AWST,Max TemperatureF,Mean TemperatureF,Min TemperatureF,Max Dew PointF,MeanDew PointF,Min DewpointF,Max Humidity, Mean Humidity, Min Humidity, Max Sea Level PressureIn, Mean Sea Level PressureIn, Min Sea Level PressureIn, Max VisibilityMiles, Mean VisibilityMiles, Min VisibilityMiles, Max Wind SpeedMPH, Mean Wind SpeedMPH, Max Gust SpeedMPH,PrecipitationIn, CloudCover, Events, WindDirDegrees
2013-11-1,103,92,80,59,51,43,42,24,7,29.95,29.87,29.76,,,,13,8,,0.00,,,348
2013-11-2,100,90,79,60,52,41,48,27,9,30.01,29.90,29.80,,,,14,9,,0.00,,,347
2013-11-3,107,95,83,54,45,36,33,17,5,29.95,29.87,29.77,,,,18,12,,0.00,,,154
2013-11-4,111,92,74,43,30,19,29,11,4,29.92,29.83,29.73,,,,20,11,34,0.00,,,131
2013-11-5,107,90,74,61,45,28,48,18,6,29.92,29.81,29.71,,,,28,10,51,0.00,,,76
2013-11-6,105,92,78,63,55,46,54,32,9,29.92,29.82,29.70,,,,36,14,47,0.03,,,284
2013-11-7,103,90,78,59,50,43,38,21,7,29.86,29.75,29.66,,,,34,19,50,0.00,,,252
2013-11-8,99,86,74,54,51,46,47,26,11,29.92,29.81,29.72,,,,26,18,,0.00,,,147
2013-11-9,102,88,74,46,39,28,31,16,4,29.95,29.85,29.76,,,,22,17,29,0.00,,,148
2013-11-10,101,86,72,40,33,27,25,13,4,29.95,29.84,29.73,,,,21,13,,0.00,,,147
2013-11-11,100,86,72,36,31,26,23,12,4,29.92,29.82,29.71,,,,23,15,,0.00,,,151
2013-11-12,103,87,71,28,24,17,19,9,4,29.86,29.78,29.67,,,,22,15,,0.00,,,147
2013-11-13,105,88,70,47,30,15,21,10,4,29.86,29.75,29.65,,,,16,11,,0.00,,,134
2013-11-14,103,89,75,70,55,35,66,30,8,29.95,29.80,29.69,,,,18,9,29,0.00,,,359
2013-11-15,98,88,77,63,58,57,51,34,18,29.92,29.82,29.71,,,,13,8,,0.00,,,347
2013-11-16,100,90,79,63,56,52,54,31,14,29.86,29.78,29.65,,,,17,9,,0.00,,,72
2013-11-17,97,88,78,63,53,39,54,30,9,29.86,29.75,29.64,,,,17,12,,0.01,,,188
2013-11-18,100,86,72,57,50,42,50,27,8,29.83,29.71,29.59,,,,12,7,,0.00,,,152
2013-11-19,101,87,73,63,57,52,65,33,12,29.74,29.65,29.55,,,,17,10,28,0.00,,,315
2013-11-20,103,88,74,70,56,41,83,37,9,29.71,29.63,29.52,,,,16,13,18,0.00,,,319
2013-11-21,101,86,72,52,43,35,39,19,6,29.74,29.66,29.57,,,,15,11,,0.00,,,305
2013-11-22,101,87,73,55,51,46,41,23,12,29.74,29.67,29.58,,,,16,11,23,0.00,,,306
2013-11-23,103,89,75,61,51,43,42,23,13,29.71,29.63,29.53,,,,18,11,24,0.00,,,314
2013-11-24,101,87,73,63,58,52,65,36,13,29.71,29.64,29.56,,,,17,14,,0.00,,,313
2013-11-25,101,86,71,65,58,48,78,41,11,29.71,29.62,29.52,,,,18,12,,0.00,,,330
2013-11-26,99,85,71,66,59,51,83,42,14,29.74,29.65,29.56,,,,16,12,,0.00,,,328
2013-11-27,98,84,71,63,56,48,73,38,12,29.80,29.70,29.59,,,,16,12,,0.00,,,318
2013-11-28,100,86,71,63,55,43,73,36,8,29.80,29.71,29.60,,,,16,12,,0.00,,,320
2013-11-29,99,84,70,64,59,54,78,42,16,29.83,29.72,29.62,,,,15,13,24,0.00,,,320
2013-11-30,99,84,70,64,58,50,78,40,13,29.80,29.71,29.61,,,,18,14,25,0.00,,,314